Stena Germanica — SKPZ — position and weather

sailwx.info

Track history (hours):
 
Tides and Currents Weather Stations Pressure Air Temp Water Temp Dewpoint Dewpoint Depression Visibility Wind Speed Wind Dir Waves Ship Positions

Stena Germanica

Last reported at 2014-Aug-27 09:13 UTC. Time now 2014-Aug-27 13:11 UTC.
Position N 55°51' E 016°05'.

Length 176 m; draft 6.8 m.

Type: Ship (hazmat cat A). MMSI: 265292000.

Date/timePositionNaut miles runAvg speedWind from/ knotsBaromVisibWave heightAir tempDewpointWater temp
2014-Aug-27 09:13N 55°51' E 016°05'1217.8
2014-Aug-27 08:33N 55°58' E 015°49'1312.6
2014-Aug-27 07:33N 56°09' E 015°37'4 1.8
2014-Aug-27 05:14N 56°05' E 015°34'9316.3
2014-Aug-26 23:32N 55°13' E 017°51'1616.7
2014-Aug-26 22:33N 55°04' E 018°15'1717.1
2014-Aug-26 21:34N 54°54' E 018°38'1717.0
2014-Aug-26 20:34N 54°41' E 018°58'1514.7
2014-Aug-26 19:33N 54°32' E 018°39'5 5.0
2014-Aug-26 18:32N 54°33' E 018°30'0 0.0
2014-Aug-26 17:32N 54°33' E 018°30'6 6.3
2014-Aug-26 16:34N 54°32' E 018°41'1313.2
2014-Aug-26 15:34N 54°44' E 018°53'1817.5
2014-Aug-26 14:34N 54°56' E 018°31'1717.4
2014-Aug-26 13:33N 55°07' E 018°07'6 0.4
2014-Aug-25 21:29N 55°04' E 018°17'1414.6
2014-Aug-25 20:33N 54°56' E 018°36'1514.5
2014-Aug-25 19:33N 54°45' E 018°52'1211.9
2014-Aug-25 18:33N 54°33' E 018°50'1111.2
2014-Aug-25 17:33N 54°33' E 018°31'0 0.3
2014-Aug-25 16:29N 54°33' E 018°30'0 0.0
2014-Aug-25 15:32N 54°33' E 018°30'0 0.0
2014-Aug-25 14:32N 54°33' E 018°30'0 0.0
2014-Aug-25 13:32N 54°33' E 018°30'0 0.0
2014-Aug-25 12:32N 54°33' E 018°30'0 0.0
2014-Aug-25 11:32N 54°33' E 018°30'0 0.0
2014-Aug-25 10:32N 54°33' E 018°30'0 0.0
2014-Aug-25 09:32N 54°33' E 018°30'0 0.0
2014-Aug-25 08:32N 54°33' E 018°30'0 0.0
2014-Aug-25 07:29N 54°33' E 018°30'1 1.3
2014-Aug-25 06:33N 54°32' E 018°32'1312.8
2014-Aug-25 05:34N 54°36' E 018°53'1413.8
2014-Aug-25 04:34N 54°49' E 018°46'1515.4
2014-Aug-25 03:34N 55°00' E 018°27'1515.2
2014-Aug-25 02:33N 55°08' E 018°05'7815.4
2014-Aug-24 21:32N 55°51' E 016°10'1515.5
2014-Aug-24 20:34N 55°59' E 015°48'1212.0
2014-Aug-24 19:34N 56°09' E 015°37'1 0.7
2014-Aug-24 18:31N 56°10' E 015°38'4 4.3
2014-Aug-24 17:34N 56°06' E 015°35'1514.9
2014-Aug-24 16:34N 55°57' E 015°55'9916.5
2014-Aug-24 10:33N 55°02' E 018°21'1616.5
2014-Aug-24 09:34N 54°51' E 018°42'1615.7
2014-Aug-24 08:34N 54°38' E 018°56'1413.6
2014-Aug-24 07:33N 54°32' E 018°34'2 2.4
2014-Aug-24 06:33N 54°33' E 018°30'0 0.0
2014-Aug-24 05:33N 54°33' E 018°30'7 7.3
2014-Aug-24 04:33N 54°32' E 018°43'1313.4
2014-Aug-24 03:34N 54°45' E 018°51'1717.5
2014-Aug-24 02:34N 54°58' E 018°32'1817.6
2014-Aug-24 01:33N 55°08' E 018°06'7917.8
2014-Aug-23 21:06N 55°51' E 016°10'1017.5
2014-Aug-23 20:33N 55°56' E 015°55'1515.5
2014-Aug-23 19:34N 56°07' E 015°35'142 8.9
2014-Aug-23 03:33N 54°42' E 018°55'1514.6
2014-Aug-23 02:33N 54°53' E 018°39'1414.4
2014-Aug-23 01:33N 55°03' E 018°20'1414.4
2014-Aug-23 00:33N 55°10' E 017°59'1514.4
2014-Aug-22 23:30N 55°19' E 017°37'5914.3
2014-Aug-22 19:25N 55°51' E 016°10'1214.3
2014-Aug-22 18:32N 55°58' E 015°51'1313.0
2014-Aug-22 17:34N 56°06' E 015°34'4 4.1
2014-Aug-22 16:30N 56°10' E 015°38'0 0.0
2014-Aug-22 15:33N 56°10' E 015°38'0 0.0
2014-Aug-22 14:33N 56°10' E 015°38'0 0.0
2014-Aug-22 13:33N 56°10' E 015°38'0 0.0
2014-Aug-22 12:33N 56°10' E 015°38'0 0.0
2014-Aug-22 11:33N 56°10' E 015°38'0 0.0
2014-Aug-22 10:33N 56°10' E 015°38'0 0.0
2014-Aug-22 09:33N 56°10' E 015°38'0 0.0
2014-Aug-22 08:33N 56°10' E 015°38'0 0.0
2014-Aug-22 07:33N 56°10' E 015°38'4 4.5
2014-Aug-22 06:34N 56°06' E 015°34'1414.3
2014-Aug-22 05:33N 55°58' E 015°55'7915.7
2014-Aug-22 00:33N 55°13' E 017°49'1515.0
2014-Aug-21 23:33N 55°05' E 018°12'1615.6
2014-Aug-21 22:33N 54°56' E 018°34'1615.8
2014-Aug-21 21:33N 54°44' E 018°53'1313.1
2014-Aug-21 20:33N 54°32' E 018°47'10 9.7
2014-Aug-21 19:33N 54°33' E 018°30'0 0.0
2014-Aug-21 18:33N 54°33' E 018°30'6 5.8
2014-Aug-21 17:33N 54°32' E 018°40'1413.6
2014-Aug-21 16:33N 54°44' E 018°53'1818.5
2014-Aug-21 15:33N 54°56' E 018°29'1818.4
2014-Aug-21 14:33N 55°07' E 018°04'8917.8
2014-Aug-21 09:33N 55°52' E 015°48'1615.9
2014-Aug-21 08:33N 56°06' E 015°34'4 3.9
2014-Aug-21 07:31N 56°10' E 015°38'0 0.0
2014-Aug-21 06:33N 56°10' E 015°38'1111.0
2014-Aug-21 05:33N 55°60' E 015°45'7914.7
2014-Aug-21 00:13N 55°15' E 017°40'1115.4
2014-Aug-20 23:32N 55°09' E 017°56'1515.5
2014-Aug-20 22:33N 55°01' E 018°17'1615.8
2014-Aug-20 21:33N 54°52' E 018°40'1413.9
2014-Aug-20 20:33N 54°43' E 018°58'1414.3
2014-Aug-20 19:33N 54°32' E 018°42'7 6.3
2014-Aug-20 18:31N 54°33' E 018°30'0 0.0
2014-Aug-20 17:28N 54°33' E 018°30'7 8.0
2014-Aug-20 16:33N 54°32' E 018°43'1313.0
2014-Aug-20 15:34N 54°44' E 018°51'1818.4
2014-Aug-20 14:33N 54°57' E 018°28'1818.0
2014-Aug-20 13:34N 55°08' E 018°03'8817.6
2014-Aug-20 08:33N 55°48' E 015°45'1817.5
2014-Aug-20 07:33N 56°05' E 015°34'6 5.4
2014-Aug-20 06:31N 56°10' E 015°38'0 0.2
2014-Aug-20 05:34N 56°10' E 015°38'1312.9
2014-Aug-20 04:34N 55°59' E 015°49'1716.4
2014-Aug-20 03:33N 55°51' E 016°15'6816.9
2014-Aug-19 23:33N 55°11' E 017°52'1717.0
2014-Aug-19 22:34N 55°01' E 018°16'1717.3
2014-Aug-19 21:34N 54°51' E 018°40'1616.0
2014-Aug-19 20:34N 54°38' E 018°56'1414.0
2014-Aug-19 19:34N 54°32' E 018°34'2 2.0
2014-Aug-19 18:32N 54°33' E 018°30'0 0.0
2014-Aug-19 17:32N 54°33' E 018°30'7 7.7
2014-Aug-19 16:33N 54°32' E 018°43'1313.3
2014-Aug-19 15:34N 54°45' E 018°51'1918.5
2014-Aug-19 14:34N 54°59' E 018°30'2019.1
2014-Aug-19 13:31N 55°09' E 018°00'8419.3
2014-Aug-19 09:10N 55°44' E 015°46'1016.6
2014-Aug-19 08:34N 55°53' E 015°40'1615.6
2014-Aug-19 07:33N 56°09' E 015°36'2 1.6
2014-Aug-19 06:32N 56°10' E 015°38'1 1.3
2014-Aug-19 05:33N 56°09' E 015°37'1313.5
2014-Aug-19 04:33N 55°58' E 015°51'1615.7
2014-Aug-19 03:33N 55°51' E 016°16'7312.1
2014-Aug-18 21:33N 55°08' E 017°60'1616.0
2014-Aug-18 20:33N 54°58' E 018°22'1818.1
2014-Aug-18 19:33N 54°48' E 018°47'1515.4
2014-Aug-18 18:33N 54°32' E 018°50'1111.4
2014-Aug-18 17:34N 54°33' E 018°30'0 0.0
2014-Aug-18 16:34N 54°33' E 018°30'0 0.0
2014-Aug-18 15:34N 54°33' E 018°30'0 0.0
2014-Aug-18 14:33N 54°33' E 018°30'0 0.0
2014-Aug-18 13:34N 54°33' E 018°30'0 0.0
2014-Aug-18 12:34N 54°33' E 018°30'0 0.0
2014-Aug-18 11:33N 54°33' E 018°30'0 0.0
2014-Aug-18 10:34N 54°33' E 018°30'0 0.0
2014-Aug-18 09:34N 54°33' E 018°30'0 0.0
2014-Aug-18 08:34N 54°33' E 018°30'0 0.0
2014-Aug-18 07:34N 54°33' E 018°30'2 2.3
2014-Aug-18 06:33N 54°32' E 018°34'1515.0
2014-Aug-18 05:33N 54°40' E 018°56'1817.9
2014-Aug-18 04:33N 54°54' E 018°38'1818.4
2014-Aug-18 03:33N 55°05' E 018°12'1515.1
2014-Aug-18 02:33N 55°14' E 017°50'9311.7
2014-Aug-17 18:33N 56°10' E 015°38'6 6.1
2014-Aug-17 17:33N 56°04' E 015°34'1414.5
2014-Aug-17 16:33N 55°57' E 015°57'9616.0
2014-Aug-17 10:33N 55°03' E 018°18'1717.0
2014-Aug-17 09:33N 54°53' E 018°41'  
Track history (hours):
 
Tides and Currents Weather Stations Pressure Air Temp Water Temp Dewpoint Dewpoint Depression Visibility Wind Speed Wind Dir Waves Ship Positions

Stena Germanica

Last reported at 2014-Aug-27 09:13 UTC. Time now 2014-Aug-27 13:11 UTC.
Position N 55°51' E 016°05'.

Length 176 m; draft 6.8 m.

Type: Ship (hazmat cat A). MMSI: 265292000.

Date/timePositionNaut miles runAvg speedWind from/ knotsBaromVisibWave heightAir tempDewpointWater temp
2014-Aug-27 09:13N 55°51' E 016°05'1217.8
2014-Aug-27 08:33N 55°58' E 015°49'1312.6
2014-Aug-27 07:33N 56°09' E 015°37'4 1.8
2014-Aug-27 05:14N 56°05' E 015°34'9316.3
2014-Aug-26 23:32N 55°13' E 017°51'1616.7
2014-Aug-26 22:33N 55°04' E 018°15'1717.1
2014-Aug-26 21:34N 54°54' E 018°38'1717.0
2014-Aug-26 20:34N 54°41' E 018°58'1514.7
2014-Aug-26 19:33N 54°32' E 018°39'5 5.0
2014-Aug-26 18:32N 54°33' E 018°30'0 0.0
2014-Aug-26 17:32N 54°33' E 018°30'6 6.3
2014-Aug-26 16:34N 54°32' E 018°41'1313.2
2014-Aug-26 15:34N 54°44' E 018°53'1817.5
2014-Aug-26 14:34N 54°56' E 018°31'1717.4
2014-Aug-26 13:33N 55°07' E 018°07'6 0.4
2014-Aug-25 21:29N 55°04' E 018°17'1414.6
2014-Aug-25 20:33N 54°56' E 018°36'1514.5
2014-Aug-25 19:33N 54°45' E 018°52'1211.9
2014-Aug-25 18:33N 54°33' E 018°50'1111.2
2014-Aug-25 17:33N 54°33' E 018°31'0 0.3
2014-Aug-25 16:29N 54°33' E 018°30'0 0.0
2014-Aug-25 15:32N 54°33' E 018°30'0 0.0
2014-Aug-25 14:32N 54°33' E 018°30'0 0.0
2014-Aug-25 13:32N 54°33' E 018°30'0 0.0
2014-Aug-25 12:32N 54°33' E 018°30'0 0.0
2014-Aug-25 11:32N 54°33' E 018°30'0 0.0
2014-Aug-25 10:32N 54°33' E 018°30'0 0.0
2014-Aug-25 09:32N 54°33' E 018°30'0 0.0
2014-Aug-25 08:32N 54°33' E 018°30'0 0.0
2014-Aug-25 07:29N 54°33' E 018°30'1 1.3
2014-Aug-25 06:33N 54°32' E 018°32'1312.8
2014-Aug-25 05:34N 54°36' E 018°53'1413.8
2014-Aug-25 04:34N 54°49' E 018°46'1515.4
2014-Aug-25 03:34N 55°00' E 018°27'1515.2
2014-Aug-25 02:33N 55°08' E 018°05'7815.4
2014-Aug-24 21:32N 55°51' E 016°10'1515.5
2014-Aug-24 20:34N 55°59' E 015°48'1212.0
2014-Aug-24 19:34N 56°09' E 015°37'1 0.7
2014-Aug-24 18:31N 56°10' E 015°38'4 4.3
2014-Aug-24 17:34N 56°06' E 015°35'1514.9
2014-Aug-24 16:34N 55°57' E 015°55'9916.5
2014-Aug-24 10:33N 55°02' E 018°21'1616.5
2014-Aug-24 09:34N 54°51' E 018°42'1615.7
2014-Aug-24 08:34N 54°38' E 018°56'1413.6
2014-Aug-24 07:33N 54°32' E 018°34'2 2.4
2014-Aug-24 06:33N 54°33' E 018°30'0 0.0
2014-Aug-24 05:33N 54°33' E 018°30'7 7.3
2014-Aug-24 04:33N 54°32' E 018°43'1313.4
2014-Aug-24 03:34N 54°45' E 018°51'1717.5
2014-Aug-24 02:34N 54°58' E 018°32'1817.6
2014-Aug-24 01:33N 55°08' E 018°06'7917.8
2014-Aug-23 21:06N 55°51' E 016°10'1017.5
2014-Aug-23 20:33N 55°56' E 015°55'1515.5
2014-Aug-23 19:34N 56°07' E 015°35'142 8.9
2014-Aug-23 03:33N 54°42' E 018°55'1514.6
2014-Aug-23 02:33N 54°53' E 018°39'1414.4
2014-Aug-23 01:33N 55°03' E 018°20'1414.4
2014-Aug-23 00:33N 55°10' E 017°59'1514.4
2014-Aug-22 23:30N 55°19' E 017°37'5914.3
2014-Aug-22 19:25N 55°51' E 016°10'1214.3
2014-Aug-22 18:32N 55°58' E 015°51'1313.0
2014-Aug-22 17:34N 56°06' E 015°34'4 4.1
2014-Aug-22 16:30N 56°10' E 015°38'0 0.0
2014-Aug-22 15:33N 56°10' E 015°38'0 0.0
2014-Aug-22 14:33N 56°10' E 015°38'0 0.0
2014-Aug-22 13:33N 56°10' E 015°38'0 0.0
2014-Aug-22 12:33N 56°10' E 015°38'0 0.0
2014-Aug-22 11:33N 56°10' E 015°38'0 0.0
2014-Aug-22 10:33N 56°10' E 015°38'0 0.0
2014-Aug-22 09:33N 56°10' E 015°38'0 0.0
2014-Aug-22 08:33N 56°10' E 015°38'0 0.0
2014-Aug-22 07:33N 56°10' E 015°38'4 4.5
2014-Aug-22 06:34N 56°06' E 015°34'1414.3
2014-Aug-22 05:33N 55°58' E 015°55'7915.7
2014-Aug-22 00:33N 55°13' E 017°49'1515.0
2014-Aug-21 23:33N 55°05' E 018°12'1615.6
2014-Aug-21 22:33N 54°56' E 018°34'1615.8
2014-Aug-21 21:33N 54°44' E 018°53'1313.1
2014-Aug-21 20:33N 54°32' E 018°47'10 9.7
2014-Aug-21 19:33N 54°33' E 018°30'0 0.0
2014-Aug-21 18:33N 54°33' E 018°30'6 5.8
2014-Aug-21 17:33N 54°32' E 018°40'1413.6
2014-Aug-21 16:33N 54°44' E 018°53'1818.5
2014-Aug-21 15:33N 54°56' E 018°29'1818.4
2014-Aug-21 14:33N 55°07' E 018°04'8917.8
2014-Aug-21 09:33N 55°52' E 015°48'1615.9
2014-Aug-21 08:33N 56°06' E 015°34'4 3.9
2014-Aug-21 07:31N 56°10' E 015°38'0 0.0
2014-Aug-21 06:33N 56°10' E 015°38'1111.0
2014-Aug-21 05:33N 55°60' E 015°45'7914.7
2014-Aug-21 00:13N 55°15' E 017°40'1115.4
2014-Aug-20 23:32N 55°09' E 017°56'1515.5
2014-Aug-20 22:33N 55°01' E 018°17'1615.8
2014-Aug-20 21:33N 54°52' E 018°40'1413.9
2014-Aug-20 20:33N 54°43' E 018°58'1414.3
2014-Aug-20 19:33N 54°32' E 018°42'7 6.3
2014-Aug-20 18:31N 54°33' E 018°30'0 0.0
2014-Aug-20 17:28N 54°33' E 018°30'7 8.0
2014-Aug-20 16:33N 54°32' E 018°43'1313.0
2014-Aug-20 15:34N 54°44' E 018°51'1818.4
2014-Aug-20 14:33N 54°57' E 018°28'1818.0
2014-Aug-20 13:34N 55°08' E 018°03'8817.6
2014-Aug-20 08:33N 55°48' E 015°45'1817.5
2014-Aug-20 07:33N 56°05' E 015°34'6 5.4
2014-Aug-20 06:31N 56°10' E 015°38'0 0.2
2014-Aug-20 05:34N 56°10' E 015°38'1312.9
2014-Aug-20 04:34N 55°59' E 015°49'1716.4
2014-Aug-20 03:33N 55°51' E 016°15'6816.9
2014-Aug-19 23:33N 55°11' E 017°52'1717.0
2014-Aug-19 22:34N 55°01' E 018°16'1717.3
2014-Aug-19 21:34N 54°51' E 018°40'1616.0
2014-Aug-19 20:34N 54°38' E 018°56'1414.0
2014-Aug-19 19:34N 54°32' E 018°34'2 2.0
2014-Aug-19 18:32N 54°33' E 018°30'0 0.0
2014-Aug-19 17:32N 54°33' E 018°30'7 7.7
2014-Aug-19 16:33N 54°32' E 018°43'1313.3
2014-Aug-19 15:34N 54°45' E 018°51'1918.5
2014-Aug-19 14:34N 54°59' E 018°30'2019.1
2014-Aug-19 13:31N 55°09' E 018°00'8419.3
2014-Aug-19 09:10N 55°44' E 015°46'1016.6
2014-Aug-19 08:34N 55°53' E 015°40'1615.6
2014-Aug-19 07:33N 56°09' E 015°36'2 1.6
2014-Aug-19 06:32N 56°10' E 015°38'1 1.3
2014-Aug-19 05:33N 56°09' E 015°37'1313.5
2014-Aug-19 04:33N 55°58' E 015°51'1615.7
2014-Aug-19 03:33N 55°51' E 016°16'7312.1
2014-Aug-18 21:33N 55°08' E 017°60'1616.0
2014-Aug-18 20:33N 54°58' E 018°22'1818.1
2014-Aug-18 19:33N 54°48' E 018°47'1515.4
2014-Aug-18 18:33N 54°32' E 018°50'1111.4
2014-Aug-18 17:34N 54°33' E 018°30'0 0.0
2014-Aug-18 16:34N 54°33' E 018°30'0 0.0
2014-Aug-18 15:34N 54°33' E 018°30'0 0.0
2014-Aug-18 14:33N 54°33' E 018°30'0 0.0
2014-Aug-18 13:34N 54°33' E 018°30'0 0.0
2014-Aug-18 12:34N 54°33' E 018°30'0 0.0
2014-Aug-18 11:33N 54°33' E 018°30'0 0.0
2014-Aug-18 10:34N 54°33' E 018°30'0 0.0
2014-Aug-18 09:34N 54°33' E 018°30'0 0.0
2014-Aug-18 08:34N 54°33' E 018°30'0 0.0
2014-Aug-18 07:34N 54°33' E 018°30'2 2.3
2014-Aug-18 06:33N 54°32' E 018°34'1515.0
2014-Aug-18 05:33N 54°40' E 018°56'1817.9
2014-Aug-18 04:33N 54°54' E 018°38'1818.4
2014-Aug-18 03:33N 55°05' E 018°12'1515.1
2014-Aug-18 02:33N 55°14' E 017°50'9311.7
2014-Aug-17 18:33N 56°10' E 015°38'6 6.1
2014-Aug-17 17:33N 56°04' E 015°34'1414.5
2014-Aug-17 16:33N 55°57' E 015°57'9616.0
2014-Aug-17 10:33N 55°03' E 018°18'1717.0
2014-Aug-17 09:33N 54°53' E 018°41'  

Dump ship's entire track history